createdAt,value
2023-02-04T00:00:58.861Z,98235.85
2023-02-04T00:06:11.716Z,98230.52
2023-02-04T00:11:19.062Z,98222.95
2023-02-04T00:16:26.316Z,98216.77
2023-02-04T00:21:33.692Z,98209.84
2023-02-04T00:26:41.411Z,98215.03
2023-02-04T00:31:48.887Z,98214.70
2023-02-04T00:36:56.707Z,98213.23
2023-02-04T00:42:05.988Z,98211.91
2023-02-04T00:47:13.303Z,98209.55
2023-02-04T00:52:20.390Z,98208.52
2023-02-04T00:57:27.895Z,98198.77
2023-02-04T01:02:34.987Z,98201.51
2023-02-04T01:07:40.613Z,98197.02
2023-02-04T01:12:47.979Z,98195.23
2023-02-04T01:17:55.698Z,98184.21
2023-02-04T01:23:02.898Z,98176.10
2023-02-04T01:28:10.713Z,98176.11
2023-02-04T01:33:17.877Z,98172.48
2023-02-04T01:38:23.449Z,98170.95
2023-02-04T01:43:31.389Z,98162.93
2023-02-04T01:59:46.876Z,98158.63
2023-02-04T02:04:54.373Z,98165.92
2023-02-04T02:10:01.833Z,98167.02
2023-02-04T02:15:11.582Z,98166.79
2023-02-04T02:20:21.815Z,98174.54
2023-02-04T02:25:29.916Z,98174.21
2023-02-04T02:30:37.566Z,98182.66
2023-02-04T02:35:48.684Z,98194.40
2023-02-04T02:40:57.816Z,98186.11
2023-02-04T02:46:05.559Z,98196.66
2023-02-04T02:51:13.299Z,98204.70
2023-02-04T02:56:21.620Z,98212.95
2023-02-04T03:01:29.508Z,98225.70
2023-02-04T03:06:37.008Z,98233.29
2023-02-04T03:11:44.781Z,98240.42
2023-02-04T03:16:53.247Z,98245.23
2023-02-04T03:22:01.692Z,98245.67
2023-02-04T03:27:10.413Z,98263.40
2023-02-04T03:32:17.627Z,98274.33
2023-02-04T03:37:23.132Z,98286.48
2023-02-04T03:42:31.484Z,98310.75
2023-02-04T03:47:39.112Z,98316.39
2023-02-04T03:52:46.609Z,98327.83
2023-02-04T03:57:53.977Z,98341.65
2023-02-04T04:03:01.871Z,98351.43
2023-02-04T04:08:09.651Z,98374.71
2023-02-04T04:13:18.478Z,98395.33
2023-02-04T04:18:25.772Z,98410.35
2023-02-04T04:23:31.335Z,98436.64
2023-02-04T04:28:38.757Z,98470.80
2023-02-04T04:33:46.190Z,98493.95
2023-02-04T04:38:53.461Z,98523.71
2023-02-04T04:43:58.899Z,98555.91
2023-02-04T04:49:06.002Z,98586.17
2023-02-04T04:54:11.688Z,98611.93
2023-02-04T04:59:19.085Z,98651.79
2023-02-04T05:04:26.432Z,98673.00
2023-02-04T05:09:33.699Z,98712.08
2023-02-04T05:19:07.992Z,98767.38
2023-02-04T05:24:16.256Z,98808.55
2023-02-04T05:29:24.587Z,98832.22
2023-02-04T05:34:32.605Z,98861.32
2023-02-04T05:39:40.655Z,98894.90
2023-02-04T05:44:49.003Z,98924.73
2023-02-04T05:49:57.694Z,98957.56
2023-02-04T05:55:08.054Z,98985.36
2023-02-04T06:00:19.498Z,99013.19
2023-02-04T06:05:27.833Z,99043.34
2023-02-04T06:10:35.826Z,99079.48
2023-02-04T06:15:45.282Z,99123.67
2023-02-04T06:20:57.205Z,99149.69
2023-02-04T06:26:06.032Z,99187.73
2023-02-04T06:31:30.743Z,99208.23
2023-02-04T06:36:57.035Z,99243.38
2023-02-04T06:42:36.780Z,99283.17
2023-02-04T06:47:40.744Z,99313.79
2023-02-04T06:52:45.725Z,99350.17
2023-02-04T06:57:49.666Z,99385.83
2023-02-04T07:02:53.574Z,99410.91
2023-02-04T07:07:57.941Z,99450.86
2023-02-04T07:13:01.871Z,99468.30
2023-02-04T07:18:06.513Z,99489.27
2023-02-04T07:23:10.356Z,99521.20
2023-02-04T07:28:14.548Z,99539.61
2023-02-04T07:33:18.605Z,99566.56
2023-02-04T07:38:22.332Z,99591.79
2023-02-04T07:43:26.457Z,99607.39
2023-02-04T07:48:30.265Z,99639.81
2023-02-04T07:53:34.175Z,99654.65
2023-02-04T07:58:38.142Z,99676.73
2023-02-04T08:03:42.750Z,99700.65
2023-02-04T08:08:46.773Z,99726.44
2023-02-04T08:13:50.600Z,99729.11
2023-02-04T08:18:54.431Z,99741.59
2023-02-04T08:23:58.452Z,99755.14
2023-02-04T08:29:02.472Z,99770.69
2023-02-04T08:34:07.211Z,99776.09
2023-02-04T08:39:12.053Z,99792.17
2023-02-04T08:44:16.294Z,99813.82
2023-02-04T08:49:20.246Z,99824.67
2023-02-04T08:54:25.781Z,99831.30
2023-02-04T08:59:30.078Z,99845.91
2023-02-04T09:04:34.765Z,99867.89
2023-02-04T09:09:38.690Z,99879.59
2023-02-04T09:14:42.915Z,99899.09
2023-02-04T09:19:46.744Z,99907.95
2023-02-04T09:24:50.884Z,99911.30
2023-02-04T09:29:54.926Z,99920.88
2023-02-04T09:34:58.761Z,99926.58
2023-02-04T09:40:03.303Z,99934.42
2023-02-04T09:45:14.968Z,99937.52
2023-02-04T09:50:22.018Z,99945.88
2023-02-04T09:55:28.645Z,99952.39
2023-02-04T10:00:34.526Z,99968.91
2023-02-04T10:05:40.219Z,99978.09
2023-02-04T10:10:45.627Z,99978.01
2023-02-04T10:15:52.460Z,99982.74
2023-02-04T10:21:03.530Z,99994.17
2023-02-04T10:26:09.880Z,99989.64
2023-02-04T10:31:33.429Z,100004.45
2023-02-04T10:36:38.115Z,100014.58
2023-02-04T10:41:49.667Z,100025.48
2023-02-04T10:47:00.771Z,100025.41
2023-02-04T10:52:16.487Z,100041.49
2023-02-04T10:57:23.353Z,100056.73
2023-02-04T11:02:45.481Z,100065.04
2023-02-04T11:07:50.382Z,100074.98
2023-02-04T11:13:04.760Z,100073.08
2023-02-04T11:18:10.898Z,100071.52
2023-02-04T11:23:33.410Z,100085.14
2023-02-04T11:28:55.635Z,100088.30
2023-02-04T11:34:13.324Z,100095.11
2023-02-04T11:39:18.878Z,100099.31
2023-02-04T11:44:24.847Z,100114.89
2023-02-04T11:49:28.792Z,100119.88
2023-02-04T11:54:32.592Z,100126.59
2023-02-04T11:59:36.318Z,100136.23
2023-02-04T12:04:50.261Z,100141.79
2023-02-04T12:09:54.882Z,100148.73
2023-02-04T12:15:05.257Z,100140.70
2023-02-04T12:20:11.607Z,100155.12
2023-02-04T12:25:17.678Z,100161.98
2023-02-04T12:30:22.081Z,100173.52
2023-02-04T12:35:26.251Z,100177.03
2023-02-04T12:40:30.424Z,100179.36
2023-02-04T12:45:34.757Z,100188.10
2023-02-04T12:50:39.509Z,100193.94
2023-02-04T12:55:43.474Z,100203.39
2023-02-04T13:00:47.672Z,100220.64
2023-02-04T13:05:52.119Z,100226.09
2023-02-04T13:10:55.781Z,100231.80
2023-02-04T13:16:00.037Z,100239.48
2023-02-04T13:21:04.417Z,100240.14
2023-02-04T13:26:08.950Z,100236.98
2023-02-04T13:31:13.006Z,100239.13
2023-02-04T13:36:16.959Z,100240.20
2023-02-04T13:41:20.949Z,100244.59
2023-02-04T13:46:25.701Z,100246.39
2023-02-04T13:51:30.255Z,100264.90
2023-02-04T13:56:34.609Z,100267.92
2023-02-04T14:01:38.728Z,100276.54
2023-02-04T14:06:43.250Z,100281.49
2023-02-04T14:11:47.225Z,100289.67
2023-02-04T14:16:51.455Z,100296.18
2023-02-04T14:21:55.345Z,100296.23
2023-02-04T14:27:00.998Z,100300.39
2023-02-04T14:32:05.995Z,100299.19
2023-02-04T14:37:10.261Z,100301.16
2023-02-04T14:42:14.399Z,100304.05
2023-02-04T14:47:18.127Z,100310.51
2023-02-04T14:52:22.169Z,100305.09
2023-02-04T14:57:26.379Z,100303.15
2023-02-04T15:02:30.583Z,100316.32
2023-02-04T15:07:34.447Z,100322.66
2023-02-04T15:12:38.464Z,100327.31
2023-02-04T15:17:42.996Z,100332.23
2023-02-04T15:22:51.264Z,100342.71
2023-02-04T15:27:56.263Z,100349.27
2023-02-04T15:33:00.336Z,100359.77
2023-02-04T15:38:04.967Z,100370.15
2023-02-04T15:43:10.263Z,100374.77
2023-02-04T15:48:15.149Z,100377.55
2023-02-04T15:53:19.682Z,100386.31
2023-02-04T15:58:23.635Z,100390.92
2023-02-04T16:03:27.792Z,100399.25
2023-02-04T16:08:31.726Z,100403.52
2023-02-04T16:13:36.447Z,100404.33
2023-02-04T16:18:41.472Z,100406.83
2023-02-04T16:23:46.914Z,100404.01
2023-02-04T16:28:50.957Z,100407.83
2023-02-04T16:33:54.896Z,100403.33
2023-02-04T16:38:59.678Z,100402.48
2023-02-04T16:44:03.673Z,100406.19
2023-02-04T16:49:08.167Z,100418.09
2023-02-04T16:54:12.019Z,100422.09
2023-02-04T16:59:16.140Z,100425.56
2023-02-04T17:04:20.179Z,100423.63
2023-02-04T17:09:23.834Z,100422.40
2023-02-04T17:14:27.669Z,100422.23
2023-02-04T17:19:31.907Z,100422.23
2023-02-04T17:24:42.099Z,100420.51
2023-02-04T17:29:45.952Z,100415.52
2023-02-04T17:34:50.321Z,100413.63
2023-02-04T17:39:54.473Z,100419.36
2023-02-04T17:44:58.463Z,100420.42
2023-02-04T17:50:05.238Z,100424.69
2023-02-04T17:55:18.756Z,100424.77
2023-02-04T18:00:26.012Z,100425.77
2023-02-04T18:05:30.890Z,100420.91
2023-02-04T18:10:37.320Z,100430.82
2023-02-04T18:15:42.518Z,100434.71
2023-02-04T18:20:47.326Z,100429.73
2023-02-04T18:25:51.214Z,100437.80
2023-02-04T18:30:59.308Z,100434.60
2023-02-04T18:36:03.106Z,100432.38
2023-02-04T18:41:33.334Z,100424.74
2023-02-04T18:46:42.088Z,100425.23
2023-02-04T18:51:47.610Z,100421.50
2023-02-04T18:56:52.935Z,100428.41
2023-02-04T19:01:57.369Z,100430.48
2023-02-04T19:07:05.862Z,100439.86
2023-02-04T19:12:21.325Z,100458.69
2023-02-04T19:17:27.848Z,100474.60
2023-02-04T19:22:43.522Z,100492.30
2023-02-04T19:27:51.172Z,100496.95
2023-02-04T19:32:56.956Z,100500.41
2023-02-04T19:38:12.546Z,100510.08
2023-02-04T19:43:23.008Z,100515.21
2023-02-04T19:48:33.635Z,100509.33
2023-02-04T19:53:37.829Z,100520.00
2023-02-04T19:58:43.214Z,100526.69
2023-02-04T20:03:48.679Z,100531.30
2023-02-04T20:08:56.482Z,100542.33
2023-02-04T20:14:19.354Z,100549.40
2023-02-04T20:19:28.513Z,100542.02
2023-02-04T20:24:36.517Z,100540.48
2023-02-04T20:29:43.115Z,100533.78
2023-02-04T20:34:47.159Z,100540.14
2023-02-04T20:39:51.715Z,100547.18
2023-02-04T20:45:09.586Z,100551.11
2023-02-04T20:50:42.592Z,100563.69
2023-02-04T20:55:50.450Z,100570.25
2023-02-04T21:00:55.423Z,100572.70
2023-02-04T21:06:01.079Z,100571.45
2023-02-04T21:11:05.599Z,100576.57
2023-02-04T21:16:09.659Z,100576.98
2023-02-04T21:21:14.550Z,100578.81
2023-02-04T21:26:19.810Z,100578.54
2023-02-04T21:31:24.013Z,100585.64
2023-02-04T21:36:28.050Z,100581.95
2023-02-04T21:41:31.786Z,100581.30
2023-02-04T21:46:35.565Z,100592.67
2023-02-04T21:51:39.493Z,100588.56
2023-02-04T21:56:43.618Z,100600.01
2023-02-04T22:01:47.616Z,100608.77
2023-02-04T22:06:51.580Z,100619.48
2023-02-04T22:11:55.440Z,100621.02
2023-02-04T22:16:59.521Z,100625.55
2023-02-04T22:22:03.728Z,100629.77
2023-02-04T22:27:07.737Z,100634.47
2023-02-04T22:32:11.652Z,100634.89
2023-02-04T22:37:15.907Z,100633.59
2023-02-04T22:42:19.731Z,100636.06
2023-02-04T22:47:23.534Z,100648.10
2023-02-04T22:52:27.436Z,100661.89
2023-02-04T22:57:31.147Z,100668.83
2023-02-04T23:02:34.856Z,100674.51
2023-02-04T23:07:38.741Z,100676.02
2023-02-04T23:12:42.609Z,100681.52
2023-02-04T23:20:09.024Z,100687.03
2023-02-04T23:25:16.824Z,100702.23
2023-02-04T23:30:25.506Z,100709.50
2023-02-04T23:35:33.524Z,100699.65
2023-02-04T23:40:41.028Z,100695.86
2023-02-04T23:45:49.717Z,100700.94
2023-02-04T23:50:58.506Z,100704.62
2023-02-04T23:56:06.697Z,100708.98
